createdAt,value
2022-11-10T00:00:21.728Z,100785.91
2022-11-10T00:03:10.075Z,100788.59
2022-11-10T00:05:58.221Z,100813.25
2022-11-10T00:08:46.119Z,100801.59
2022-11-10T00:11:33.935Z,100801.44
2022-11-10T00:14:34.164Z,100798.44
2022-11-10T00:17:24.919Z,100806.34
2022-11-10T00:20:13.202Z,100810.88
2022-11-10T00:23:00.872Z,100812.59
2022-11-10T00:25:48.614Z,100815.09
2022-11-10T00:28:36.502Z,100810.75
2022-11-10T00:31:24.230Z,100813.69
2022-11-10T00:34:17.197Z,100811.69
2022-11-10T00:37:05.121Z,100819.66
2022-11-10T00:39:53.259Z,100805.63
2022-11-10T00:42:40.938Z,100825.16
2022-11-10T00:45:28.651Z,100822.63
2022-11-10T00:48:16.389Z,100824.53
2022-11-10T00:51:07.119Z,100833.19
2022-11-10T00:53:55.267Z,100837.56
2022-11-10T00:56:43.354Z,100834.16
2022-11-10T00:59:31.072Z,100834.03
2022-11-10T01:02:19.181Z,100839.16
2022-11-10T01:05:07.184Z,100828.03
2022-11-10T01:07:57.862Z,100838.81
2022-11-10T01:10:45.708Z,100838.75
2022-11-10T01:13:33.545Z,100844.03
2022-11-10T01:16:21.966Z,100844.94
2022-11-10T01:19:10.075Z,100841.38
2022-11-10T01:21:58.138Z,100848.59
2022-11-10T01:24:48.364Z,100853.06
2022-11-10T01:27:36.101Z,100863.66
2022-11-10T01:30:23.927Z,100859.31
2022-11-10T01:33:11.818Z,100873.53
2022-11-10T01:36:00.141Z,100871.75
2022-11-10T01:38:48.028Z,100870.13
2022-11-10T01:41:38.597Z,100874.69
2022-11-10T01:44:27.392Z,100872.97
2022-11-10T01:47:15.116Z,100879.72
2022-11-10T01:50:02.966Z,100879.75
2022-11-10T01:52:53.525Z,100877.25
2022-11-10T01:55:42.703Z,100882.59
2022-11-10T01:58:39.883Z,100885.44
2022-11-10T02:01:28.114Z,100889.00
2022-11-10T02:04:17.296Z,100881.94
2022-11-10T02:07:05.943Z,100886.19
2022-11-10T02:09:55.158Z,100895.81
2022-11-10T02:12:43.267Z,100901.13
2022-11-10T02:15:34.061Z,100894.09
2022-11-10T02:18:22.331Z,100898.47
2022-11-10T02:21:12.817Z,100897.63
2022-11-10T02:24:00.789Z,100914.22
2022-11-10T02:26:50.016Z,100906.31
2022-11-10T02:29:40.868Z,100916.84
2022-11-10T02:32:28.880Z,100922.06
2022-11-10T02:35:17.124Z,100912.44
2022-11-10T02:38:07.989Z,100906.88
2022-11-10T02:40:56.078Z,100907.09
2022-11-10T02:43:44.512Z,100914.31
2022-11-10T02:46:32.581Z,100920.97
2022-11-10T02:49:20.358Z,100922.81
2022-11-10T02:52:08.136Z,100927.91
2022-11-10T02:54:58.709Z,100922.47
2022-11-10T02:57:46.584Z,100934.72
2022-11-10T03:00:34.668Z,100926.81
2022-11-10T03:03:22.761Z,100928.47
2022-11-10T03:06:10.977Z,100938.94
2022-11-10T03:08:59.112Z,100950.94
2022-11-10T03:11:49.456Z,100952.41
2022-11-10T03:14:37.274Z,100951.69
2022-11-10T03:17:25.227Z,100954.72
2022-11-10T03:20:13.459Z,100956.59
2022-11-10T03:23:04.590Z,100958.22
2022-11-10T03:25:52.484Z,100942.69
2022-11-10T03:28:42.830Z,100941.72
2022-11-10T03:31:30.820Z,100956.78
2022-11-10T03:34:18.811Z,100946.38
2022-11-10T03:37:06.757Z,100955.16
2022-11-10T03:39:54.714Z,100953.44
2022-11-10T03:42:44.594Z,100964.84
2022-11-10T03:45:35.031Z,100970.09
2022-11-10T03:48:22.827Z,100980.66
2022-11-10T03:51:10.768Z,100993.63
2022-11-10T03:53:58.623Z,100983.13
2022-11-10T03:56:46.288Z,100990.34
2022-11-10T03:59:34.407Z,101004.38
2022-11-10T04:02:24.728Z,101000.81
2022-11-10T04:05:24.990Z,100997.31
2022-11-10T04:08:28.427Z,101008.59
2022-11-10T04:11:36.305Z,101011.41
2022-11-10T04:14:36.614Z,101006.19
2022-11-10T04:17:26.926Z,101019.56
2022-11-10T04:20:15.007Z,101028.41
2022-11-10T04:23:26.963Z,101030.13
2022-11-10T04:26:27.705Z,101038.94
2022-11-10T04:29:16.062Z,101050.34
2022-11-10T04:32:03.858Z,101059.09
2022-11-10T04:34:54.184Z,101060.09
2022-11-10T04:37:41.876Z,101066.25
2022-11-10T04:40:29.936Z,101055.97
2022-11-10T04:43:17.904Z,101064.00
2022-11-10T04:46:05.690Z,101062.28
2022-11-10T04:48:53.463Z,101062.25
2022-11-10T04:51:44.027Z,101072.66
2022-11-10T04:54:31.767Z,101077.84
2022-11-10T04:57:19.659Z,101081.88
2022-11-10T05:00:07.987Z,101095.88
2022-11-10T05:02:55.560Z,101103.78
2022-11-10T05:05:43.628Z,101100.13
2022-11-10T05:08:34.579Z,101102.66
2022-11-10T05:11:22.575Z,101100.22
2022-11-10T05:14:10.308Z,101110.69
2022-11-10T05:16:58.334Z,101124.09
2022-11-10T05:19:47.381Z,101119.75
2022-11-10T05:22:35.540Z,101120.78
2022-11-10T05:25:26.100Z,101134.75
2022-11-10T05:28:14.347Z,101127.94
2022-11-10T05:31:02.136Z,101126.09
2022-11-10T05:33:49.962Z,101129.44
2022-11-10T05:36:37.810Z,101132.06
2022-11-10T05:39:25.690Z,101138.34
2022-11-10T05:42:16.341Z,101143.56
2022-11-10T05:45:04.154Z,101150.44
2022-11-10T05:47:52.287Z,101148.66
2022-11-10T05:50:40.235Z,101146.88
2022-11-10T05:53:28.296Z,101158.97
2022-11-10T05:56:16.313Z,101158.84
2022-11-10T05:59:06.912Z,101160.63
2022-11-10T06:01:54.659Z,101164.25
2022-11-10T06:04:42.374Z,101162.53
2022-11-10T06:07:30.488Z,101160.00
2022-11-10T06:10:18.975Z,101159.94
2022-11-10T06:13:10.674Z,101168.56
2022-11-10T06:16:01.288Z,101175.81
2022-11-10T06:18:48.919Z,101182.72
2022-11-10T06:21:36.551Z,101174.16
2022-11-10T06:24:24.401Z,101187.53
2022-11-10T06:27:12.150Z,101196.41
2022-11-10T06:30:00.096Z,101192.06
2022-11-10T06:32:50.484Z,101196.34
2022-11-10T06:35:38.143Z,101209.50
2022-11-10T06:38:26.895Z,101208.63
2022-11-10T06:41:17.307Z,101206.91
2022-11-10T06:44:07.118Z,101215.59
2022-11-10T06:46:55.244Z,101226.81
2022-11-10T06:49:45.700Z,101225.84
2022-11-10T06:52:34.274Z,101228.31
2022-11-10T06:55:22.179Z,101243.47
2022-11-10T06:58:09.941Z,101253.03
2022-11-10T07:00:57.737Z,101250.31
2022-11-10T07:04:13.159Z,101249.41
2022-11-10T07:06:56.128Z,101256.72
2022-11-10T07:09:44.096Z,101262.94
2022-11-10T07:12:31.963Z,101272.47
2022-11-10T07:15:20.052Z,101278.53
2022-11-10T07:18:08.009Z,101273.09
2022-11-10T07:20:55.704Z,101282.03
2022-11-10T07:23:46.919Z,101290.66
2022-11-10T07:26:35.103Z,101288.78
2022-11-10T07:29:23.326Z,101299.09
2022-11-10T07:32:11.067Z,101308.78
2022-11-10T07:34:58.777Z,101314.97
2022-11-10T07:37:46.702Z,101314.81
2022-11-10T07:40:37.289Z,101311.31
2022-11-10T07:43:25.903Z,101317.34
2022-11-10T07:46:13.975Z,101324.31
2022-11-10T07:49:02.200Z,101322.13
2022-11-10T07:51:50.285Z,101321.97
2022-11-10T07:54:38.265Z,101334.06
2022-11-10T07:57:28.663Z,101337.56
2022-11-10T08:00:17.681Z,101337.31
2022-11-10T08:03:06.214Z,101346.03
2022-11-10T08:05:54.399Z,101347.59
2022-11-10T08:08:42.403Z,101351.19
2022-11-10T08:11:30.165Z,101362.44
2022-11-10T08:14:20.543Z,101358.91
2022-11-10T08:17:08.338Z,101371.97
2022-11-10T08:19:56.067Z,101368.34
2022-11-10T08:22:44.441Z,101378.03
2022-11-10T08:25:35.040Z,101385.03
2022-11-10T08:28:23.379Z,101388.41
2022-11-10T08:31:14.193Z,101391.91
2022-11-10T08:34:02.247Z,101389.09
2022-11-10T08:36:50.100Z,101391.78
2022-11-10T08:39:39.389Z,101391.84
2022-11-10T08:42:28.949Z,101391.81
2022-11-10T08:45:17.512Z,101397.84
2022-11-10T08:48:09.905Z,101396.03
2022-11-10T08:51:05.171Z,101402.78
2022-11-10T08:53:54.384Z,101403.53
2022-11-10T08:56:44.408Z,101396.47
2022-11-10T08:59:33.881Z,101413.91
2022-11-10T09:02:23.083Z,101424.91
2022-11-10T09:05:14.166Z,101429.97
2022-11-10T09:08:01.868Z,101422.91
2022-11-10T09:10:51.178Z,101421.97
2022-11-10T09:13:38.875Z,101420.97
2022-11-10T09:16:26.741Z,101419.84
2022-11-10T09:19:19.609Z,101419.69
2022-11-10T09:22:10.518Z,101429.22
2022-11-10T09:24:58.239Z,101429.13
2022-11-10T09:27:46.076Z,101427.78
2022-11-10T09:30:33.985Z,101416.03
2022-11-10T09:33:22.207Z,101412.16
2022-11-10T09:36:10.546Z,101430.19
2022-11-10T09:39:00.821Z,101432.47
2022-11-10T09:41:48.515Z,101440.41
2022-11-10T09:44:36.752Z,101438.34
2022-11-10T09:50:35.611Z,101460.31
2022-11-10T09:53:24.293Z,101454.78
2022-11-10T09:56:15.651Z,101454.84
2022-11-10T09:59:03.681Z,101456.19
2022-11-10T10:01:52.832Z,101461.78
2022-11-10T10:04:52.121Z,101464.19
2022-11-10T10:07:41.286Z,101463.22
2022-11-10T10:10:30.632Z,101465.00
2022-11-10T10:13:26.168Z,101476.75
2022-11-10T10:16:15.131Z,101475.19
2022-11-10T10:19:05.678Z,101472.97
2022-11-10T10:21:59.824Z,101466.72
2022-11-10T10:24:47.748Z,101467.91
2022-11-10T10:27:35.556Z,101466.25
2022-11-10T10:30:26.333Z,101474.38
2022-11-10T10:33:16.700Z,101469.78
2022-11-10T10:36:06.686Z,101477.38
2022-11-10T10:38:54.836Z,101475.75
2022-11-10T10:41:43.271Z,101465.75
2022-11-10T10:44:31.319Z,101468.88
2022-11-10T10:47:21.656Z,101467.09
2022-11-10T10:50:18.932Z,101465.16
2022-11-10T10:53:10.637Z,101462.59
2022-11-10T10:56:03.703Z,101469.06
2022-11-10T10:58:54.932Z,101465.53
2022-11-10T11:01:42.859Z,101474.13
2022-11-10T11:04:34.748Z,101472.16
2022-11-10T11:07:23.303Z,101481.13
2022-11-10T11:10:20.656Z,101481.91
2022-11-10T11:13:18.021Z,101487.69
2022-11-10T11:16:07.234Z,101489.16
2022-11-10T11:18:55.207Z,101498.16
2022-11-10T11:21:49.187Z,101503.81
2022-11-10T11:24:37.716Z,101509.56
2022-11-10T11:27:26.812Z,101510.44
2022-11-10T11:30:15.801Z,101515.72
2022-11-10T11:33:09.740Z,101516.84
2022-11-10T11:35:58.975Z,101512.97
2022-11-10T11:39:00.297Z,101512.47
2022-11-10T11:41:49.506Z,101528.41
2022-11-10T11:44:41.944Z,101532.06
2022-11-10T11:47:34.446Z,101525.78
2022-11-10T11:50:25.323Z,101523.88
2022-11-10T11:53:17.335Z,101526.78
2022-11-10T11:56:12.707Z,101545.91
2022-11-10T11:59:04.249Z,101538.25
2022-11-10T12:01:55.957Z,101540.72
2022-11-10T12:04:47.549Z,101545.66
2022-11-10T12:07:40.415Z,101544.06
2022-11-10T12:10:30.226Z,101537.44
2022-11-10T12:13:32.095Z,101539.91
2022-11-10T12:16:21.336Z,101522.09
2022-11-10T12:19:10.947Z,101529.41
2022-11-10T12:21:58.963Z,101536.88
2022-11-10T12:24:52.651Z,101536.47
2022-11-10T12:27:41.140Z,101543.34
2022-11-10T12:30:31.603Z,101543.50
2022-11-10T12:33:23.227Z,101553.91
2022-11-10T12:36:14.314Z,101551.97
2022-11-10T12:39:03.799Z,101543.41
2022-11-10T12:41:58.896Z,101554.28
2022-11-10T12:44:51.304Z,101551.91
2022-11-10T12:47:42.215Z,101551.03
2022-11-10T12:50:43.780Z,101551.03
2022-11-10T12:53:32.619Z,101559.28
2022-11-10T12:56:21.359Z,101562.44
2022-11-10T12:59:33.296Z,101560.13
2022-11-10T13:02:24.445Z,101565.09
2022-11-10T13:05:20.439Z,101571.25
2022-11-10T13:08:15.573Z,101583.31
2022-11-10T13:11:04.702Z,101568.44
2022-11-10T13:13:59.270Z,101559.31
2022-11-10T13:16:54.447Z,101565.97
2022-11-10T13:19:55.886Z,101573.94
2022-11-10T13:22:47.835Z,101576.75
2022-11-10T13:26:02.336Z,101592.53
2022-11-10T13:29:05.980Z,101577.53
2022-11-10T13:31:55.071Z,101560.38
2022-11-10T13:34:42.980Z,101570.91
2022-11-10T13:37:46.430Z,101564.88
2022-11-10T13:40:39.410Z,101579.53
2022-11-10T13:43:28.940Z,101577.06
2022-11-10T13:46:17.018Z,101575.06
2022-11-10T13:49:22.491Z,101577.63
2022-11-10T13:52:13.850Z,101583.09
2022-11-10T13:55:06.186Z,101570.44
2022-11-10T13:58:00.361Z,101572.81
2022-11-10T14:00:52.051Z,101570.06
2022-11-10T14:03:57.510Z,101564.91
2022-11-10T14:06:46.481Z,101569.28
2022-11-10T14:09:35.573Z,101572.25
2022-11-10T14:12:26.431Z,101569.34
2022-11-10T14:15:18.948Z,101565.56
2022-11-10T14:18:06.776Z,101579.53
2022-11-10T14:20:55.714Z,101575.44
2022-11-10T14:23:45.760Z,101578.34
2022-11-10T14:26:35.600Z,101562.06
2022-11-10T14:29:39.178Z,101572.00
2022-11-10T14:32:29.775Z,101577.59
2022-11-10T14:35:22.493Z,101575.44
2022-11-10T14:38:10.238Z,101581.28
2022-11-10T14:40:58.807Z,101580.88
2022-11-10T14:43:46.746Z,101580.38
2022-11-10T14:46:35.401Z,101584.38
2022-11-10T14:49:28.906Z,101576.53
2022-11-10T14:52:16.999Z,101582.41
2022-11-10T14:55:05.053Z,101583.34
2022-11-10T14:57:53.457Z,101583.34
2022-11-10T15:00:41.778Z,101592.47
2022-11-10T15:03:33.413Z,101593.69
2022-11-10T15:06:23.997Z,101592.13
2022-11-10T15:09:16.231Z,101595.00
2022-11-10T15:12:11.641Z,101596.72
2022-11-10T15:15:00.167Z,101598.78
2022-11-10T15:17:48.748Z,101606.03
2022-11-10T15:20:38.208Z,101608.06
2022-11-10T15:23:33.265Z,101607.84
2022-11-10T15:26:22.923Z,101607.16
2022-11-10T15:29:18.958Z,101604.75
2022-11-10T15:32:07.139Z,101603.09
2022-11-10T15:34:55.068Z,101613.59
2022-11-10T15:37:42.756Z,101614.22
2022-11-10T15:40:34.642Z,101616.75
2022-11-10T15:43:29.082Z,101623.41
2022-11-10T15:46:18.680Z,101609.53
2022-11-10T15:49:06.727Z,101614.06
2022-11-10T15:51:54.940Z,101612.56
2022-11-10T15:54:42.983Z,101610.06
2022-11-10T15:57:33.372Z,101607.66
2022-11-10T16:00:21.275Z,101612.56
2022-11-10T16:03:11.811Z,101615.38
2022-11-10T16:06:00.821Z,101621.84
2022-11-10T16:08:48.582Z,101627.25
2022-11-10T16:11:37.111Z,101626.13
2022-11-10T16:14:27.480Z,101625.63
2022-11-10T16:17:15.311Z,101636.81
2022-11-10T16:20:03.443Z,101645.91
2022-11-10T16:22:51.560Z,101649.53
2022-11-10T16:25:39.504Z,101665.56
2022-11-10T16:28:28.313Z,101669.22
2022-11-10T16:31:19.877Z,101669.34
2022-11-10T16:34:08.009Z,101673.13
2022-11-10T16:36:55.742Z,101681.00
2022-11-10T16:39:43.446Z,101685.50
2022-11-10T16:42:31.185Z,101687.38
2022-11-10T16:45:19.431Z,101684.94
2022-11-10T16:48:10.259Z,101680.59
2022-11-10T16:50:58.419Z,101682.56
2022-11-10T16:53:46.888Z,101685.47
2022-11-10T16:56:34.554Z,101690.44
2022-11-10T16:59:22.278Z,101691.41
2022-11-10T17:02:13.558Z,101689.97
2022-11-10T17:05:04.043Z,101689.84
2022-11-10T17:07:52.206Z,101699.63
2022-11-10T17:10:40.089Z,101697.91
2022-11-10T17:13:28.043Z,101705.72
2022-11-10T17:16:17.897Z,101707.38
2022-11-10T17:19:06.099Z,101717.25
2022-11-10T17:21:56.741Z,101725.19
2022-11-10T17:24:44.660Z,101726.31
2022-11-10T17:27:37.690Z,101732.41
2022-11-10T17:30:27.676Z,101745.84
2022-11-10T17:33:17.341Z,101740.56
2022-11-10T17:36:06.153Z,101745.97
2022-11-10T17:38:58.167Z,101747.66
2022-11-10T17:41:47.542Z,101747.03
2022-11-10T17:44:35.876Z,101756.88
2022-11-10T17:47:24.336Z,101751.97
2022-11-10T17:50:13.267Z,101749.09
2022-11-10T17:53:03.597Z,101762.50
2022-11-10T17:55:56.126Z,101759.72
2022-11-10T17:58:45.233Z,101753.00
2022-11-10T18:01:33.406Z,101753.31
2022-11-10T18:04:21.953Z,101761.56
2022-11-10T18:07:09.907Z,101757.63
2022-11-10T18:09:57.911Z,101753.25
2022-11-10T18:12:48.515Z,101749.13
2022-11-10T18:15:36.138Z,101755.59
2022-11-10T18:18:24.081Z,101751.53
2022-11-10T18:21:12.658Z,101758.91
2022-11-10T18:24:01.915Z,101756.41
2022-11-10T18:26:49.863Z,101758.97
2022-11-10T18:29:40.343Z,101751.34
2022-11-10T18:32:28.336Z,101746.47
2022-11-10T18:35:17.803Z,101758.94
2022-11-10T18:38:05.655Z,101753.75
2022-11-10T18:40:53.532Z,101752.94
2022-11-10T18:43:41.592Z,101761.91
2022-11-10T18:46:32.008Z,101768.38
2022-11-10T18:49:20.744Z,101774.69
2022-11-10T18:52:10.136Z,101774.72
2022-11-10T18:54:57.894Z,101785.16
2022-11-10T18:57:47.026Z,101786.22
2022-11-10T19:00:35.302Z,101792.56
2022-11-10T19:03:25.950Z,101799.63
2022-11-10T19:06:14.221Z,101810.31
2022-11-10T19:09:02.062Z,101810.31
2022-11-10T19:11:50.184Z,101804.97
2022-11-10T19:14:38.106Z,101806.75
2022-11-10T19:17:25.899Z,101796.25
2022-11-10T19:20:16.327Z,101793.59
2022-11-10T19:23:06.611Z,101795.41
2022-11-10T19:26:01.527Z,101798.00
2022-11-10T19:28:49.448Z,101793.81
2022-11-10T19:31:37.203Z,101795.47
2022-11-10T19:34:24.860Z,101792.22
2022-11-10T19:37:12.696Z,101787.97
2022-11-10T19:40:03.283Z,101788.72
2022-11-10T19:42:51.051Z,101788.81
2022-11-10T19:45:39.296Z,101786.28
2022-11-10T19:48:27.094Z,101790.72
2022-11-10T19:51:15.517Z,101786.34
2022-11-10T19:54:05.107Z,101792.56
2022-11-10T19:56:55.633Z,101790.84
2022-11-10T19:59:43.511Z,101791.78
2022-11-10T20:02:31.253Z,101785.66
2022-11-10T20:05:19.164Z,101791.78
2022-11-10T20:08:13.576Z,101801.50
2022-11-10T20:11:02.227Z,101804.31
2022-11-10T20:13:55.011Z,101810.53
2022-11-10T20:16:43.357Z,101815.84
2022-11-10T20:19:31.366Z,101808.00
2022-11-10T20:22:19.158Z,101803.63
2022-11-10T20:25:07.474Z,101795.00
2022-11-10T20:27:55.250Z,101802.91
2022-11-10T20:30:47.190Z,101811.81
2022-11-10T20:33:35.867Z,101803.03
2022-11-10T20:36:26.125Z,101813.75
2022-11-10T20:39:13.861Z,101813.75
2022-11-10T20:42:01.684Z,101799.78
2022-11-10T20:44:49.383Z,101803.38
2022-11-10T20:47:39.947Z,101813.19
2022-11-10T20:50:27.750Z,101800.06
2022-11-10T20:53:15.679Z,101806.31
2022-11-10T20:56:03.663Z,101820.47
2022-11-10T20:58:52.374Z,101829.25
2022-11-10T21:01:40.284Z,101839.00
2022-11-10T21:04:30.998Z,101839.97
2022-11-10T21:07:18.931Z,101837.16
2022-11-10T21:10:06.996Z,101835.44
2022-11-10T21:12:54.714Z,101844.19
2022-11-10T21:15:42.688Z,101852.03
2022-11-10T21:18:31.135Z,101845.16
2022-11-10T21:21:26.348Z,101846.97
2022-11-10T21:24:14.467Z,101854.75
2022-11-10T21:27:02.815Z,101860.81
2022-11-10T21:29:50.526Z,101853.72
2022-11-10T21:32:38.297Z,101859.28
2022-11-10T21:35:26.361Z,101854.97
2022-11-10T21:38:17.169Z,101853.97
2022-11-10T21:41:05.098Z,101855.66
2022-11-10T21:43:53.342Z,101861.03
2022-11-10T21:46:40.995Z,101864.56
2022-11-10T21:49:28.832Z,101868.94
2022-11-10T21:52:16.675Z,101869.88
2022-11-10T21:55:07.893Z,101870.78
2022-11-10T21:57:58.972Z,101873.38
2022-11-10T22:00:46.996Z,101868.16
2022-11-10T22:03:35.199Z,101867.22
2022-11-10T22:06:22.984Z,101860.25
2022-11-10T22:09:10.739Z,101864.56
2022-11-10T22:12:13.539Z,101875.16
2022-11-10T22:15:14.159Z,101876.03
2022-11-10T22:18:14.733Z,101872.53
2022-11-10T22:21:02.649Z,101867.25
2022-11-10T22:24:05.273Z,101864.63
2022-11-10T22:26:53.209Z,101871.56
2022-11-10T22:29:44.015Z,101870.75
2022-11-10T22:32:32.091Z,101876.09
2022-11-10T22:35:32.109Z,101880.53
2022-11-10T22:38:20.055Z,101874.44
2022-11-10T22:41:21.518Z,101883.13
2022-11-10T22:44:10.727Z,101888.47
2022-11-10T22:47:01.251Z,101888.56
2022-11-10T22:49:49.216Z,101886.00
2022-11-10T22:52:37.307Z,101884.22
2022-11-10T22:55:25.146Z,101886.06
2022-11-10T22:58:13.245Z,101878.97
2022-11-10T23:01:05.755Z,101886.16
2022-11-10T23:03:56.200Z,101879.19
2022-11-10T23:06:44.295Z,101881.88
2022-11-10T23:09:34.740Z,101886.41
2022-11-10T23:12:22.477Z,101887.22
2022-11-10T23:15:11.100Z,101895.91
2022-11-10T23:18:03.768Z,101907.41
2022-11-10T23:21:00.817Z,101898.59
2022-11-10T23:23:49.009Z,101902.09
2022-11-10T23:26:36.713Z,101907.31
2022-11-10T23:29:24.469Z,101909.97
2022-11-10T23:32:12.515Z,101910.91
2022-11-10T23:35:00.489Z,101908.31
2022-11-10T23:37:51.344Z,101906.56
2022-11-10T23:40:39.583Z,101904.88
2022-11-10T23:43:27.744Z,101884.69
2022-11-10T23:46:15.783Z,101878.59
2022-11-10T23:49:04.266Z,101886.56
2022-11-10T23:51:52.398Z,101893.66
2022-11-10T23:54:42.888Z,101896.25
2022-11-10T23:57:30.641Z,101906.72
